sensor_id;sensor_type;location;lat;lon;timestamp;P1;durP1;ratioP1;P2;durP2;ratioP2
32200;SDS011;18701;45.588;5.288;2023-03-21T00:01:03;11.45;;;4.03;;
32200;SDS011;18701;45.588;5.288;2023-03-21T00:03:30;6.78;;;4.35;;
32200;SDS011;18701;45.588;5.288;2023-03-21T00:05:57;7.25;;;4.10;;
32200;SDS011;18701;45.588;5.288;2023-03-21T00:08:23;13.88;;;4.97;;
32200;SDS011;18701;45.588;5.288;2023-03-21T00:10:56;7.80;;;4.53;;
32200;SDS011;18701;45.588;5.288;2023-03-21T00:13:24;7.70;;;4.60;;
32200;SDS011;18701;45.588;5.288;2023-03-21T00:15:52;6.20;;;4.22;;
32200;SDS011;18701;45.588;5.288;2023-03-21T00:18:22;7.68;;;4.53;;
32200;SDS011;18701;45.588;5.288;2023-03-21T00:20:59;6.63;;;4.20;;
32200;SDS011;18701;45.588;5.288;2023-03-21T00:23:27;7.32;;;4.53;;
32200;SDS011;18701;45.588;5.288;2023-03-21T00:25:55;10.07;;;4.35;;
32200;SDS011;18701;45.588;5.288;2023-03-21T00:28:21;8.75;;;4.30;;
32200;SDS011;18701;45.588;5.288;2023-03-21T00:30:47;11.18;;;4.20;;
32200;SDS011;18701;45.588;5.288;2023-03-21T00:33:13;6.78;;;4.22;;
32200;SDS011;18701;45.588;5.288;2023-03-21T00:35:39;9.45;;;4.47;;
32200;SDS011;18701;45.588;5.288;2023-03-21T00:38:12;10.82;;;4.43;;
32200;SDS011;18701;45.588;5.288;2023-03-21T00:40:38;11.68;;;4.20;;
32200;SDS011;18701;45.588;5.288;2023-03-21T00:43:04;8.50;;;4.10;;
32200;SDS011;18701;45.588;5.288;2023-03-21T00:45:30;9.40;;;4.22;;
32200;SDS011;18701;45.588;5.288;2023-03-21T00:47:56;5.85;;;3.47;;
32200;SDS011;18701;45.588;5.288;2023-03-21T00:50:22;5.90;;;3.75;;
32200;SDS011;18701;45.588;5.288;2023-03-21T00:52:48;6.93;;;3.28;;
32200;SDS011;18701;45.588;5.288;2023-03-21T00:55:15;10.98;;;4.70;;
32200;SDS011;18701;45.588;5.288;2023-03-21T00:57:41;9.30;;;4.30;;
32200;SDS011;18701;45.588;5.288;2023-03-21T01:00:09;6.93;;;3.58;;
32200;SDS011;18701;45.588;5.288;2023-03-21T01:02:37;9.18;;;4.40;;
32200;SDS011;18701;45.588;5.288;2023-03-21T01:05:20;9.50;;;3.10;;
32200;SDS011;18701;45.588;5.288;2023-03-21T01:08:05;6.28;;;3.75;;
32200;SDS011;18701;45.588;5.288;2023-03-21T01:10:31;9.15;;;3.38;;
32200;SDS011;18701;45.588;5.288;2023-03-21T01:12:57;7.72;;;3.70;;
32200;SDS011;18701;45.588;5.288;2023-03-21T01:15:23;5.50;;;3.33;;
32200;SDS011;18701;45.588;5.288;2023-03-21T01:17:49;6.85;;;3.80;;
32200;SDS011;18701;45.588;5.288;2023-03-21T01:20:14;6.72;;;3.22;;
32200;SDS011;18701;45.588;5.288;2023-03-21T01:22:40;6.30;;;3.20;;
32200;SDS011;18701;45.588;5.288;2023-03-21T01:25:06;8.70;;;3.63;;
32200;SDS011;18701;45.588;5.288;2023-03-21T01:27:33;6.55;;;3.80;;
32200;SDS011;18701;45.588;5.288;2023-03-21T01:29:59;9.13;;;4.32;;
32200;SDS011;18701;45.588;5.288;2023-03-21T01:32:24;6.82;;;4.10;;
32200;SDS011;18701;45.588;5.288;2023-03-21T01:34:50;6.40;;;3.75;;
32200;SDS011;18701;45.588;5.288;2023-03-21T01:37:15;7.53;;;3.83;;
32200;SDS011;18701;45.588;5.288;2023-03-21T01:39:43;5.55;;;3.63;;
32200;SDS011;18701;45.588;5.288;2023-03-21T01:42:11;6.82;;;3.28;;
32200;SDS011;18701;45.588;5.288;2023-03-21T01:44:53;4.97;;;3.00;;
32200;SDS011;18701;45.588;5.288;2023-03-21T01:47:24;6.70;;;3.40;;
32200;SDS011;18701;45.588;5.288;2023-03-21T01:49:51;5.30;;;3.08;;
32200;SDS011;18701;45.588;5.288;2023-03-21T01:52:24;6.10;;;3.22;;
32200;SDS011;18701;45.588;5.288;2023-03-21T01:54:52;8.70;;;3.47;;
32200;SDS011;18701;45.588;5.288;2023-03-21T01:57:21;6.22;;;3.13;;
32200;SDS011;18701;45.588;5.288;2023-03-21T01:59:56;7.22;;;3.35;;
32200;SDS011;18701;45.588;5.288;2023-03-21T02:02:27;12.25;;;3.30;;
32200;SDS011;18701;45.588;5.288;2023-03-21T02:04:55;4.70;;;2.80;;
32200;SDS011;18701;45.588;5.288;2023-03-21T02:07:32;4.68;;;3.13;;
32200;SDS011;18701;45.588;5.288;2023-03-21T02:10:01;3.92;;;2.80;;
32200;SDS011;18701;45.588;5.288;2023-03-21T02:12:29;5.78;;;2.80;;
32200;SDS011;18701;45.588;5.288;2023-03-21T02:14:56;5.50;;;2.38;;
32200;SDS011;18701;45.588;5.288;2023-03-21T02:27:25;7.80;;;3.00;;
32200;SDS011;18701;45.588;5.288;2023-03-21T02:38:23;7.10;;;3.97;;
32200;SDS011;18701;45.588;5.288;2023-03-21T02:43:51;9.65;;;4.20;;
32200;SDS011;18701;45.588;5.288;2023-03-21T02:46:37;6.70;;;3.60;;
32200;SDS011;18701;45.588;5.288;2023-03-21T02:49:20;8.07;;;3.25;;
32200;SDS011;18701;45.588;5.288;2023-03-21T02:51:50;8.30;;;3.60;;
32200;SDS011;18701;45.588;5.288;2023-03-21T02:54:17;6.85;;;4.10;;
32200;SDS011;18701;45.588;5.288;2023-03-21T02:56:46;8.88;;;3.92;;
32200;SDS011;18701;45.588;5.288;2023-03-21T02:59:14;9.10;;;3.78;;
32200;SDS011;18701;45.588;5.288;2023-03-21T03:01:42;9.23;;;3.72;;
32200;SDS011;18701;45.588;5.288;2023-03-21T03:04:20;8.55;;;4.22;;
32200;SDS011;18701;45.588;5.288;2023-03-21T03:09:38;6.07;;;3.28;;
32200;SDS011;18701;45.588;5.288;2023-03-21T03:12:26;14.63;;;3.53;;
32200;SDS011;18701;45.588;5.288;2023-03-21T03:20:34;7.43;;;3.97;;
32200;SDS011;18701;45.588;5.288;2023-03-21T03:26:14;12.02;;;3.30;;
32200;SDS011;18701;45.588;5.288;2023-03-21T03:28:44;6.30;;;3.60;;
32200;SDS011;18701;45.588;5.288;2023-03-21T03:31:15;5.93;;;3.20;;
32200;SDS011;18701;45.588;5.288;2023-03-21T03:33:46;6.10;;;3.70;;
32200;SDS011;18701;45.588;5.288;2023-03-21T03:36:16;5.00;;;2.95;;
32200;SDS011;18701;45.588;5.288;2023-03-21T03:38:45;9.18;;;3.70;;
32200;SDS011;18701;45.588;5.288;2023-03-21T03:41:15;8.20;;;3.35;;
32200;SDS011;18701;45.588;5.288;2023-03-21T03:43:47;6.60;;;2.53;;
32200;SDS011;18701;45.588;5.288;2023-03-21T03:46:20;7.28;;;3.45;;
32200;SDS011;18701;45.588;5.288;2023-03-21T03:48:54;5.22;;;3.45;;
32200;SDS011;18701;45.588;5.288;2023-03-21T03:54:29;11.57;;;3.20;;
32200;SDS011;18701;45.588;5.288;2023-03-21T03:57:23;4.72;;;2.72;;
32200;SDS011;18701;45.588;5.288;2023-03-21T03:59:50;3.50;;;2.33;;
32200;SDS011;18701;45.588;5.288;2023-03-21T04:02:15;3.50;;;2.03;;
32200;SDS011;18701;45.588;5.288;2023-03-21T04:04:41;5.93;;;2.33;;
32200;SDS011;18701;45.588;5.288;2023-03-21T04:07:07;3.70;;;2.20;;
32200;SDS011;18701;45.588;5.288;2023-03-21T04:09:33;4.80;;;2.28;;
32200;SDS011;18701;45.588;5.288;2023-03-21T04:11:58;6.63;;;1.90;;
32200;SDS011;18701;45.588;5.288;2023-03-21T04:14:25;8.43;;;2.40;;
32200;SDS011;18701;45.588;5.288;2023-03-21T04:16:50;4.82;;;2.17;;
32200;SDS011;18701;45.588;5.288;2023-03-21T04:19:16;5.43;;;2.67;;
32200;SDS011;18701;45.588;5.288;2023-03-21T04:21:43;4.90;;;2.47;;
32200;SDS011;18701;45.588;5.288;2023-03-21T04:24:09;3.80;;;2.38;;
32200;SDS011;18701;45.588;5.288;2023-03-21T04:26:36;4.45;;;2.30;;
32200;SDS011;18701;45.588;5.288;2023-03-21T04:29:02;4.65;;;2.38;;
32200;SDS011;18701;45.588;5.288;2023-03-21T04:31:29;3.83;;;2.22;;
32200;SDS011;18701;45.588;5.288;2023-03-21T04:33:57;5.75;;;2.78;;
32200;SDS011;18701;45.588;5.288;2023-03-21T04:36:24;4.20;;;2.35;;
32200;SDS011;18701;45.588;5.288;2023-03-21T04:39:02;5.43;;;2.28;;
32200;SDS011;18701;45.588;5.288;2023-03-21T04:41:30;3.45;;;1.90;;
32200;SDS011;18701;45.588;5.288;2023-03-21T04:43:56;3.97;;;2.42;;
32200;SDS011;18701;45.588;5.288;2023-03-21T04:46:21;4.72;;;2.90;;
32200;SDS011;18701;45.588;5.288;2023-03-21T04:48:48;6.88;;;2.42;;
32200;SDS011;18701;45.588;5.288;2023-03-21T04:51:14;7.10;;;2.70;;
32200;SDS011;18701;45.588;5.288;2023-03-21T04:53:40;8.10;;;2.88;;
32200;SDS011;18701;45.588;5.288;2023-03-21T04:56:09;7.30;;;2.70;;
32200;SDS011;18701;45.588;5.288;2023-03-21T04:58:35;3.70;;;2.20;;
32200;SDS011;18701;45.588;5.288;2023-03-21T05:01:01;3.40;;;2.40;;
32200;SDS011;18701;45.588;5.288;2023-03-21T05:03:29;5.50;;;2.13;;
32200;SDS011;18701;45.588;5.288;2023-03-21T05:06:01;8.30;;;2.33;;
32200;SDS011;18701;45.588;5.288;2023-03-21T05:08:27;4.38;;;1.95;;
32200;SDS011;18701;45.588;5.288;2023-03-21T05:10:53;5.25;;;2.58;;
32200;SDS011;18701;45.588;5.288;2023-03-21T05:13:18;7.70;;;2.85;;
32200;SDS011;18701;45.588;5.288;2023-03-21T05:15:44;11.75;;;2.83;;
32200;SDS011;18701;45.588;5.288;2023-03-21T05:18:10;4.20;;;2.22;;
32200;SDS011;18701;45.588;5.288;2023-03-21T05:20:37;6.55;;;2.75;;
32200;SDS011;18701;45.588;5.288;2023-03-21T05:23:07;4.72;;;2.22;;
32200;SDS011;18701;45.588;5.288;2023-03-21T05:25:35;4.03;;;1.83;;
32200;SDS011;18701;45.588;5.288;2023-03-21T05:28:02;3.00;;;1.77;;
32200;SDS011;18701;45.588;5.288;2023-03-21T05:30:29;5.28;;;2.90;;
32200;SDS011;18701;45.588;5.288;2023-03-21T05:32:55;5.10;;;2.67;;
32200;SDS011;18701;45.588;5.288;2023-03-21T05:35:20;4.88;;;2.70;;
32200;SDS011;18701;45.588;5.288;2023-03-21T05:37:46;4.10;;;2.72;;
32200;SDS011;18701;45.588;5.288;2023-03-21T05:40:12;6.30;;;3.13;;
32200;SDS011;18701;45.588;5.288;2023-03-21T05:42:37;10.30;;;3.17;;
32200;SDS011;18701;45.588;5.288;2023-03-21T05:45:03;7.38;;;3.15;;
32200;SDS011;18701;45.588;5.288;2023-03-21T05:47:29;6.75;;;2.65;;
32200;SDS011;18701;45.588;5.288;2023-03-21T05:49:55;3.63;;;2.30;;
32200;SDS011;18701;45.588;5.288;2023-03-21T05:52:21;4.97;;;2.83;;
32200;SDS011;18701;45.588;5.288;2023-03-21T05:54:47;5.25;;;2.67;;
32200;SDS011;18701;45.588;5.288;2023-03-21T05:57:12;5.70;;;2.67;;
32200;SDS011;18701;45.588;5.288;2023-03-21T05:59:38;7.00;;;3.10;;
32200;SDS011;18701;45.588;5.288;2023-03-21T06:02:04;4.68;;;3.03;;
32200;SDS011;18701;45.588;5.288;2023-03-21T06:04:30;5.22;;;2.47;;
32200;SDS011;18701;45.588;5.288;2023-03-21T06:06:55;8.40;;;3.28;;
32200;SDS011;18701;45.588;5.288;2023-03-21T06:09:21;5.07;;;2.83;;
32200;SDS011;18701;45.588;5.288;2023-03-21T06:11:49;5.97;;;2.53;;
32200;SDS011;18701;45.588;5.288;2023-03-21T06:14:16;8.98;;;3.10;;
32200;SDS011;18701;45.588;5.288;2023-03-21T06:16:43;5.00;;;2.78;;
32200;SDS011;18701;45.588;5.288;2023-03-21T06:19:09;5.78;;;2.42;;
32200;SDS011;18701;45.588;5.288;2023-03-21T06:21:35;7.43;;;2.55;;
32200;SDS011;18701;45.588;5.288;2023-03-21T06:24:00;7.32;;;3.38;;
32200;SDS011;18701;45.588;5.288;2023-03-21T06:26:26;9.30;;;3.13;;
32200;SDS011;18701;45.588;5.288;2023-03-21T06:28:52;6.53;;;3.25;;
32200;SDS011;18701;45.588;5.288;2023-03-21T06:31:18;5.45;;;2.80;;
32200;SDS011;18701;45.588;5.288;2023-03-21T06:33:50;11.32;;;2.75;;
32200;SDS011;18701;45.588;5.288;2023-03-21T06:36:16;5.03;;;2.78;;
32200;SDS011;18701;45.588;5.288;2023-03-21T06:38:42;9.75;;;2.90;;
32200;SDS011;18701;45.588;5.288;2023-03-21T06:41:08;10.40;;;2.78;;
32200;SDS011;18701;45.588;5.288;2023-03-21T06:43:34;4.32;;;2.17;;
32200;SDS011;18701;45.588;5.288;2023-03-21T06:46:00;5.25;;;2.90;;
32200;SDS011;18701;45.588;5.288;2023-03-21T06:48:26;9.82;;;2.85;;
32200;SDS011;18701;45.588;5.288;2023-03-21T06:50:52;8.95;;;3.05;;
32200;SDS011;18701;45.588;5.288;2023-03-21T06:53:18;6.72;;;2.80;;
32200;SDS011;18701;45.588;5.288;2023-03-21T06:55:52;8.60;;;3.28;;
32200;SDS011;18701;45.588;5.288;2023-03-21T06:58:18;8.35;;;3.28;;
32200;SDS011;18701;45.588;5.288;2023-03-21T07:00:45;5.65;;;3.08;;
32200;SDS011;18701;45.588;5.288;2023-03-21T07:03:12;7.45;;;2.80;;
32200;SDS011;18701;45.588;5.288;2023-03-21T07:05:38;9.48;;;3.30;;
32200;SDS011;18701;45.588;5.288;2023-03-21T07:08:05;7.18;;;3.30;;
32200;SDS011;18701;45.588;5.288;2023-03-21T07:10:37;5.38;;;3.20;;
32200;SDS011;18701;45.588;5.288;2023-03-21T07:13:03;9.52;;;3.15;;
32200;SDS011;18701;45.588;5.288;2023-03-21T07:15:29;8.90;;;3.30;;
32200;SDS011;18701;45.588;5.288;2023-03-21T07:17:55;7.32;;;3.35;;
32200;SDS011;18701;45.588;5.288;2023-03-21T07:20:21;9.50;;;3.65;;
32200;SDS011;18701;45.588;5.288;2023-03-21T07:22:46;9.13;;;3.72;;
32200;SDS011;18701;45.588;5.288;2023-03-21T07:25:12;6.60;;;3.38;;
32200;SDS011;18701;45.588;5.288;2023-03-21T07:27:37;12.70;;;3.60;;
32200;SDS011;18701;45.588;5.288;2023-03-21T07:30:03;7.05;;;3.42;;
32200;SDS011;18701;45.588;5.288;2023-03-21T07:32:31;10.45;;;3.10;;
32200;SDS011;18701;45.588;5.288;2023-03-21T07:34:58;15.38;;;3.40;;
32200;SDS011;18701;45.588;5.288;2023-03-21T07:37:24;10.20;;;3.40;;
32200;SDS011;18701;45.588;5.288;2023-03-21T07:39:50;8.57;;;3.60;;
32200;SDS011;18701;45.588;5.288;2023-03-21T07:42:16;9.23;;;3.65;;
32200;SDS011;18701;45.588;5.288;2023-03-21T07:44:42;13.55;;;3.70;;
32200;SDS011;18701;45.588;5.288;2023-03-21T07:47:08;4.78;;;3.22;;
32200;SDS011;18701;45.588;5.288;2023-03-21T07:49:33;8.25;;;3.85;;
32200;SDS011;18701;45.588;5.288;2023-03-21T07:52:00;7.13;;;3.10;;
32200;SDS011;18701;45.588;5.288;2023-03-21T07:54:26;7.13;;;3.88;;
32200;SDS011;18701;45.588;5.288;2023-03-21T07:56:53;8.98;;;3.90;;
32200;SDS011;18701;45.588;5.288;2023-03-21T07:59:19;7.88;;;3.90;;
32200;SDS011;18701;45.588;5.288;2023-03-21T08:01:45;6.95;;;3.63;;
32200;SDS011;18701;45.588;5.288;2023-03-21T08:04:10;7.38;;;3.17;;
32200;SDS011;18701;45.588;5.288;2023-03-21T08:06:36;6.03;;;3.65;;
32200;SDS011;18701;45.588;5.288;2023-03-21T08:09:02;5.50;;;3.28;;
32200;SDS011;18701;45.588;5.288;2023-03-21T08:11:28;10.10;;;3.75;;
32200;SDS011;18701;45.588;5.288;2023-03-21T08:13:57;5.05;;;3.58;;
32200;SDS011;18701;45.588;5.288;2023-03-21T08:16:23;4.57;;;2.90;;
32200;SDS011;18701;45.588;5.288;2023-03-21T08:18:49;8.40;;;3.58;;
32200;SDS011;18701;45.588;5.288;2023-03-21T08:21:14;8.63;;;3.50;;
32200;SDS011;18701;45.588;5.288;2023-03-21T08:23:40;9.30;;;3.45;;
32200;SDS011;18701;45.588;5.288;2023-03-21T08:26:06;9.70;;;3.65;;
32200;SDS011;18701;45.588;5.288;2023-03-21T08:28:31;6.47;;;3.20;;
32200;SDS011;18701;45.588;5.288;2023-03-21T08:30:57;4.38;;;2.55;;
32200;SDS011;18701;45.588;5.288;2023-03-21T08:33:23;7.53;;;4.10;;
32200;SDS011;18701;45.588;5.288;2023-03-21T08:35:48;4.25;;;3.10;;
32200;SDS011;18701;45.588;5.288;2023-03-21T08:38:14;5.85;;;3.30;;
32200;SDS011;18701;45.588;5.288;2023-03-21T08:40:40;11.25;;;3.22;;
32200;SDS011;18701;45.588;5.288;2023-03-21T08:43:06;4.50;;;3.20;;
32200;SDS011;18701;45.588;5.288;2023-03-21T08:45:32;8.13;;;3.90;;
32200;SDS011;18701;45.588;5.288;2023-03-21T08:47:58;6.55;;;2.92;;
32200;SDS011;18701;45.588;5.288;2023-03-21T08:50:24;6.72;;;3.60;;
32200;SDS011;18701;45.588;5.288;2023-03-21T08:52:53;8.32;;;3.83;;
32200;SDS011;18701;45.588;5.288;2023-03-21T08:55:19;14.02;;;3.70;;
32200;SDS011;18701;45.588;5.288;2023-03-21T08:57:44;10.73;;;4.40;;
32200;SDS011;18701;45.588;5.288;2023-03-21T09:00:11;8.25;;;3.75;;
32200;SDS011;18701;45.588;5.288;2023-03-21T09:02:46;9.27;;;4.10;;
32200;SDS011;18701;45.588;5.288;2023-03-21T09:05:13;9.77;;;3.13;;
32200;SDS011;18701;45.588;5.288;2023-03-21T09:07:40;11.05;;;4.00;;
32200;SDS011;18701;45.588;5.288;2023-03-21T09:10:08;6.40;;;3.22;;
32200;SDS011;18701;45.588;5.288;2023-03-21T09:12:36;7.55;;;3.70;;
32200;SDS011;18701;45.588;5.288;2023-03-21T09:15:02;10.70;;;3.88;;
32200;SDS011;18701;45.588;5.288;2023-03-21T09:17:28;8.73;;;3.72;;
32200;SDS011;18701;45.588;5.288;2023-03-21T09:19:55;10.43;;;3.90;;
32200;SDS011;18701;45.588;5.288;2023-03-21T09:22:23;8.23;;;4.20;;
32200;SDS011;18701;45.588;5.288;2023-03-21T09:24:49;10.35;;;4.78;;
32200;SDS011;18701;45.588;5.288;2023-03-21T09:27:15;11.93;;;5.20;;
32200;SDS011;18701;45.588;5.288;2023-03-21T09:29:42;14.65;;;5.10;;
32200;SDS011;18701;45.588;5.288;2023-03-21T09:32:08;14.73;;;5.25;;
32200;SDS011;18701;45.588;5.288;2023-03-21T09:34:36;7.78;;;4.95;;
32200;SDS011;18701;45.588;5.288;2023-03-21T09:37:05;15.95;;;4.68;;
32200;SDS011;18701;45.588;5.288;2023-03-21T09:39:37;10.75;;;4.85;;
32200;SDS011;18701;45.588;5.288;2023-03-21T09:48:22;7.15;;;3.83;;
32200;SDS011;18701;45.588;5.288;2023-03-21T09:50:58;11.68;;;3.95;;
32200;SDS011;18701;45.588;5.288;2023-03-21T09:53:26;6.28;;;3.10;;
32200;SDS011;18701;45.588;5.288;2023-03-21T09:55:57;7.85;;;3.90;;
32200;SDS011;18701;45.588;5.288;2023-03-21T10:00:54;7.80;;;2.58;;
32200;SDS011;18701;45.588;5.288;2023-03-21T10:03:31;5.35;;;2.83;;
32200;SDS011;18701;45.588;5.288;2023-03-21T10:06:05;6.90;;;3.10;;
32200;SDS011;18701;45.588;5.288;2023-03-21T10:08:40;7.22;;;3.35;;
32200;SDS011;18701;45.588;5.288;2023-03-21T10:11:16;6.85;;;3.15;;
32200;SDS011;18701;45.588;5.288;2023-03-21T10:14:11;5.25;;;3.10;;
32200;SDS011;18701;45.588;5.288;2023-03-21T10:16:42;5.55;;;2.60;;
32200;SDS011;18701;45.588;5.288;2023-03-21T10:19:10;4.57;;;2.75;;
32200;SDS011;18701;45.588;5.288;2023-03-21T10:21:41;3.88;;;2.60;;
32200;SDS011;18701;45.588;5.288;2023-03-21T10:24:11;7.95;;;2.65;;
32200;SDS011;18701;45.588;5.288;2023-03-21T10:26:41;3.50;;;1.90;;
32200;SDS011;18701;45.588;5.288;2023-03-21T10:29:09;5.72;;;2.33;;
32200;SDS011;18701;45.588;5.288;2023-03-21T10:31:38;5.22;;;2.53;;
32200;SDS011;18701;45.588;5.288;2023-03-21T10:34:11;7.15;;;2.38;;
32200;SDS011;18701;45.588;5.288;2023-03-21T10:36:50;9.13;;;2.30;;
32200;SDS011;18701;45.588;5.288;2023-03-21T10:39:20;4.00;;;2.17;;
32200;SDS011;18701;45.588;5.288;2023-03-21T10:41:56;7.80;;;2.50;;
32200;SDS011;18701;45.588;5.288;2023-03-21T10:44:21;5.95;;;2.47;;
32200;SDS011;18701;45.588;5.288;2023-03-21T10:46:54;7.00;;;2.70;;
32200;SDS011;18701;45.588;5.288;2023-03-21T10:49:31;4.25;;;2.63;;
32200;SDS011;18701;45.588;5.288;2023-03-21T10:51:58;7.07;;;3.65;;
32200;SDS011;18701;45.588;5.288;2023-03-21T10:54:27;2.88;;;2.35;;
32200;SDS011;18701;45.588;5.288;2023-03-21T10:57:02;4.18;;;2.35;;
32200;SDS011;18701;45.588;5.288;2023-03-21T10:59:42;10.63;;;2.28;;
32200;SDS011;18701;45.588;5.288;2023-03-21T11:02:17;6.50;;;2.17;;
32200;SDS011;18701;45.588;5.288;2023-03-21T11:04:54;6.32;;;2.22;;
32200;SDS011;18701;45.588;5.288;2023-03-21T11:07:20;3.47;;;2.53;;
32200;SDS011;18701;45.588;5.288;2023-03-21T11:12:28;4.03;;;2.70;;
32200;SDS011;18701;45.588;5.288;2023-03-21T11:14:58;3.70;;;2.35;;
32200;SDS011;18701;45.588;5.288;2023-03-21T11:18:20;9.13;;;2.65;;
32200;SDS011;18701;45.588;5.288;2023-03-21T11:20:49;4.85;;;2.67;;
32200;SDS011;18701;45.588;5.288;2023-03-21T11:23:27;5.63;;;2.25;;
32200;SDS011;18701;45.588;5.288;2023-03-21T11:25:56;5.75;;;2.25;;
32200;SDS011;18701;45.588;5.288;2023-03-21T11:28:25;2.63;;;2.05;;
32200;SDS011;18701;45.588;5.288;2023-03-21T11:30:58;3.95;;;2.40;;
32200;SDS011;18701;45.588;5.288;2023-03-21T11:33:27;3.65;;;1.98;;
32200;SDS011;18701;45.588;5.288;2023-03-21T11:35:58;4.20;;;1.85;;
32200;SDS011;18701;45.588;5.288;2023-03-21T11:38:33;4.55;;;1.55;;
32200;SDS011;18701;45.588;5.288;2023-03-21T11:41:02;3.58;;;1.77;;
32200;SDS011;18701;45.588;5.288;2023-03-21T11:48:24;2.00;;;1.20;;
32200;SDS011;18701;45.588;5.288;2023-03-21T11:50:51;3.72;;;1.10;;
32200;SDS011;18701;45.588;5.288;2023-03-21T11:59:03;4.78;;;1.58;;
32200;SDS011;18701;45.588;5.288;2023-03-21T12:06:59;2.95;;;0.90;;
32200;SDS011;18701;45.588;5.288;2023-03-21T12:09:34;3.33;;;0.90;;
32200;SDS011;18701;45.588;5.288;2023-03-21T12:12:08;3.55;;;0.80;;
32200;SDS011;18701;45.588;5.288;2023-03-21T12:17:36;1.23;;;0.40;;
32200;SDS011;18701;45.588;5.288;2023-03-21T12:25:38;1.75;;;0.30;;
32200;SDS011;18701;45.588;5.288;2023-03-21T12:28:15;1.30;;;0.40;;
32200;SDS011;18701;45.588;5.288;2023-03-21T12:39:21;4.78;;;0.73;;
32200;SDS011;18701;45.588;5.288;2023-03-21T12:44:38;2.05;;;0.63;;
32200;SDS011;18701;45.588;5.288;2023-03-21T12:47:12;1.88;;;0.52;;
32200;SDS011;18701;45.588;5.288;2023-03-21T12:49:46;1.88;;;0.70;;
32200;SDS011;18701;45.588;5.288;2023-03-21T12:52:28;4.80;;;0.73;;
32200;SDS011;18701;45.588;5.288;2023-03-21T12:54:58;1.40;;;0.50;;
32200;SDS011;18701;45.588;5.288;2023-03-21T12:57:34;1.30;;;0.40;;
32200;SDS011;18701;45.588;5.288;2023-03-21T13:00:14;2.55;;;0.80;;
32200;SDS011;18701;45.588;5.288;2023-03-21T13:02:52;4.00;;;0.93;;
32200;SDS011;18701;45.588;5.288;2023-03-21T13:05:30;8.38;;;0.77;;
32200;SDS011;18701;45.588;5.288;2023-03-21T13:10:40;2.47;;;0.45;;
32200;SDS011;18701;45.588;5.288;2023-03-21T13:13:16;2.17;;;0.30;;
32200;SDS011;18701;45.588;5.288;2023-03-21T13:18:31;1.50;;;0.63;;
32200;SDS011;18701;45.588;5.288;2023-03-21T13:24:01;1.45;;;0.40;;
32200;SDS011;18701;45.588;5.288;2023-03-21T13:26:44;3.17;;;0.40;;
32200;SDS011;18701;45.588;5.288;2023-03-21T13:29:30;5.00;;;0.30;;
32200;SDS011;18701;45.588;5.288;2023-03-21T13:32:07;1.20;;;0.32;;
32200;SDS011;18701;45.588;5.288;2023-03-21T13:34:43;2.60;;;0.40;;
32200;SDS011;18701;45.588;5.288;2023-03-21T13:37:13;1.60;;;0.20;;
32200;SDS011;18701;45.588;5.288;2023-03-21T13:39:44;3.20;;;0.22;;
32200;SDS011;18701;45.588;5.288;2023-03-21T13:42:17;2.42;;;0.20;;
32200;SDS011;18701;45.588;5.288;2023-03-21T13:44:48;0.55;;;0.20;;
32200;SDS011;18701;45.588;5.288;2023-03-21T13:48:03;2.15;;;0.17;;
32200;SDS011;18701;45.588;5.288;2023-03-21T13:50:22;4.20;;;0.15;;
32200;SDS011;18701;45.588;5.288;2023-03-21T13:53:36;5.85;;;0.35;;
32200;SDS011;18701;45.588;5.288;2023-03-21T13:55:40;3.10;;;0.40;;
32200;SDS011;18701;45.588;5.288;2023-03-21T13:58:23;3.92;;;0.30;;
32200;SDS011;18701;45.588;5.288;2023-03-21T14:04:25;1.23;;;0.20;;
32200;SDS011;18701;45.588;5.288;2023-03-21T14:06:53;1.83;;;0.20;;
32200;SDS011;18701;45.588;5.288;2023-03-21T14:09:38;5.40;;;0.30;;
32200;SDS011;18701;45.588;5.288;2023-03-21T14:15:12;2.55;;;0.20;;
32200;SDS011;18701;45.588;5.288;2023-03-21T14:17:53;2.60;;;0.30;;
32200;SDS011;18701;45.588;5.288;2023-03-21T14:20:22;5.32;;;0.30;;
32200;SDS011;18701;45.588;5.288;2023-03-21T14:22:50;2.72;;;0.22;;
32200;SDS011;18701;45.588;5.288;2023-03-21T14:25:17;8.38;;;0.30;;
32200;SDS011;18701;45.588;5.288;2023-03-21T14:27:47;1.45;;;0.40;;
32200;SDS011;18701;45.588;5.288;2023-03-21T14:30:31;5.07;;;0.40;;
32200;SDS011;18701;45.588;5.288;2023-03-21T14:33:46;1.88;;;0.20;;
32200;SDS011;18701;45.588;5.288;2023-03-21T14:36:13;2.15;;;0.35;;
32200;SDS011;18701;45.588;5.288;2023-03-21T14:38:52;2.20;;;0.35;;
32200;SDS011;18701;45.588;5.288;2023-03-21T14:41:27;1.92;;;0.25;;
32200;SDS011;18701;45.588;5.288;2023-03-21T14:44:01;8.05;;;0.40;;
32200;SDS011;18701;45.588;5.288;2023-03-21T14:46:27;4.30;;;0.40;;
32200;SDS011;18701;45.588;5.288;2023-03-21T14:48:53;1.45;;;0.40;;
32200;SDS011;18701;45.588;5.288;2023-03-21T14:51:18;1.63;;;0.40;;
32200;SDS011;18701;45.588;5.288;2023-03-21T14:53:45;1.92;;;0.20;;
32200;SDS011;18701;45.588;5.288;2023-03-21T14:56:19;2.28;;;0.43;;
32200;SDS011;18701;45.588;5.288;2023-03-21T14:58:47;1.10;;;0.30;;
32200;SDS011;18701;45.588;5.288;2023-03-21T15:01:15;3.70;;;0.68;;
32200;SDS011;18701;45.588;5.288;2023-03-21T15:03:55;6.00;;;0.57;;
32200;SDS011;18701;45.588;5.288;2023-03-21T15:06:23;3.25;;;0.50;;
32200;SDS011;18701;45.588;5.288;2023-03-21T15:08:59;2.95;;;0.30;;
32200;SDS011;18701;45.588;5.288;2023-03-21T15:11:36;5.30;;;0.30;;
32200;SDS011;18701;45.588;5.288;2023-03-21T15:16:30;4.18;;;0.30;;
32200;SDS011;18701;45.588;5.288;2023-03-21T15:18:56;1.17;;;0.30;;
32200;SDS011;18701;45.588;5.288;2023-03-21T15:21:24;2.30;;;0.30;;
32200;SDS011;18701;45.588;5.288;2023-03-21T15:24:16;1.15;;;0.30;;
32200;SDS011;18701;45.588;5.288;2023-03-21T15:27:00;1.35;;;0.20;;
32200;SDS011;18701;45.588;5.288;2023-03-21T15:29:28;3.72;;;0.32;;
32200;SDS011;18701;45.588;5.288;2023-03-21T15:31:54;3.80;;;0.30;;
32200;SDS011;18701;45.588;5.288;2023-03-21T15:36:48;1.98;;;0.22;;
32200;SDS011;18701;45.588;5.288;2023-03-21T15:39:18;3.00;;;0.20;;
32200;SDS011;18701;45.588;5.288;2023-03-21T15:41:56;0.75;;;0.20;;
32200;SDS011;18701;45.588;5.288;2023-03-21T15:44:24;1.40;;;0.28;;
32200;SDS011;18701;45.588;5.288;2023-03-21T15:46:51;3.80;;;0.32;;
32200;SDS011;18701;45.588;5.288;2023-03-21T15:49:19;5.47;;;0.30;;
32200;SDS011;18701;45.588;5.288;2023-03-21T15:51:52;1.23;;;0.20;;
32200;SDS011;18701;45.588;5.288;2023-03-21T15:54:24;1.52;;;0.60;;
32200;SDS011;18701;45.588;5.288;2023-03-21T15:57:03;1.58;;;0.30;;
32200;SDS011;18701;45.588;5.288;2023-03-21T15:59:40;5.30;;;0.20;;
32200;SDS011;18701;45.588;5.288;2023-03-21T16:02:16;1.67;;;0.35;;
32200;SDS011;18701;45.588;5.288;2023-03-21T16:07:23;2.10;;;0.40;;
32200;SDS011;18701;45.588;5.288;2023-03-21T16:09:55;4.97;;;0.30;;
32200;SDS011;18701;45.588;5.288;2023-03-21T16:12:23;3.75;;;0.20;;
32200;SDS011;18701;45.588;5.288;2023-03-21T16:14:49;2.33;;;0.38;;
32200;SDS011;18701;45.588;5.288;2023-03-21T16:17:22;5.57;;;0.32;;
32200;SDS011;18701;45.588;5.288;2023-03-21T16:20:25;2.17;;;0.22;;
32200;SDS011;18701;45.588;5.288;2023-03-21T16:22:51;5.13;;;0.57;;
32200;SDS011;18701;45.588;5.288;2023-03-21T16:25:17;4.32;;;0.40;;
32200;SDS011;18701;45.588;5.288;2023-03-21T16:27:44;7.05;;;0.52;;
32200;SDS011;18701;45.588;5.288;2023-03-21T16:30:11;2.80;;;0.45;;
32200;SDS011;18701;45.588;5.288;2023-03-21T16:32:38;9.75;;;0.70;;
32200;SDS011;18701;45.588;5.288;2023-03-21T16:35:05;3.53;;;0.30;;
32200;SDS011;18701;45.588;5.288;2023-03-21T16:37:31;2.58;;;0.30;;
32200;SDS011;18701;45.588;5.288;2023-03-21T16:39:56;3.17;;;0.43;;
32200;SDS011;18701;45.588;5.288;2023-03-21T16:42:22;1.83;;;0.68;;
32200;SDS011;18701;45.588;5.288;2023-03-21T16:44:48;1.10;;;0.30;;
32200;SDS011;18701;45.588;5.288;2023-03-21T16:47:14;4.30;;;0.60;;